Time,TemperatureF,DewpointF,PressureIn,WindDirection,WindDirectionDegrees,WindSpeedMPH,WindSpeedGustMPH,Humidity,HourlyPrecipIn,Conditions,Clouds,dailyrainin,SoftwareType,DateUTC
2013-01-20 00:22:00,63.0,11.0,30.01,ENE,63,2.0,6.0,13,0.00,,,-99.99,,2013-01-20 08:22:00,
2013-01-20 00:32:00,63.0,11.0,30.01,ENE,63,2.0,6.0,13,0.00,,,-99.99,,2013-01-20 08:32:00,
2013-01-20 00:52:00,63.0,10.0,30.01,ENE,66,2.0,7.0,12,0.00,,,-99.99,,2013-01-20 08:52:00,
2013-01-20 01:02:00,63.0,10.0,30.01,ENE,66,2.0,7.0,12,0.00,,,-99.99,,2013-01-20 09:02:00,
2013-01-20 01:22:00,63.0,10.0,30.01,NE,54,4.0,9.0,12,0.00,,,-99.99,,2013-01-20 09:22:00,
2013-01-20 01:42:00,63.0,10.0,30.01,NE,54,4.0,9.0,12,0.00,,,-99.99,,2013-01-20 09:42:00,
2013-01-20 01:52:00,61.0,10.0,30.01,ENE,63,3.0,6.0,13,0.00,,,-99.99,,2013-01-20 09:52:00,
2013-01-20 02:42:00,61.0,10.0,30.01,ENE,63,2.0,7.0,13,0.00,,,-99.99,,2013-01-20 10:42:00,
2013-01-20 02:52:00,61.0,10.0,30.01,ENE,67,2.0,5.0,13,0.00,,,-99.99,,2013-01-20 10:52:00,
2013-01-20 03:12:00,60.0,11.0,30.00,East,82,3.0,6.0,14,0.00,,,-99.99,,2013-01-20 11:12:00,
2013-01-20 03:22:00,60.0,11.0,30.00,East,82,3.0,6.0,14,0.00,,,-99.99,,2013-01-20 11:22:00,
2013-01-20 03:42:00,60.0,11.0,30.00,East,82,3.0,6.0,14,0.00,,,-99.99,,2013-01-20 11:42:00,
2013-01-20 03:53:00,60.0,9.0,30.00,ENE,68,2.0,6.0,13,0.00,,,-99.99,,2013-01-20 11:53:00,
2013-01-20 04:22:00,59.0,11.0,29.99,ENE,70,2.0,7.0,15,0.00,,,-99.99,,2013-01-20 12:22:00,
2013-01-20 04:33:00,59.0,11.0,29.99,ENE,70,2.0,7.0,15,0.00,,,-99.99,,2013-01-20 12:33:00,
2013-01-20 04:43:00,59.0,11.0,29.99,ENE,70,2.0,7.0,15,0.00,,,-99.99,,2013-01-20 12:43:00,
2013-01-20 04:52:00,59.0,11.0,29.98,ENE,76,1.0,5.0,15,0.00,,,-99.99,,2013-01-20 12:52:00,
2013-01-20 05:02:00,59.0,11.0,29.98,ENE,76,1.0,5.0,15,0.00,,,-99.99,,2013-01-20 13:02:00,
2013-01-20 05:22:00,59.0,11.0,29.98,ENE,65,2.0,6.0,15,0.00,,,-99.99,,2013-01-20 13:22:00,
2013-01-20 05:33:00,59.0,11.0,29.98,ENE,65,2.0,6.0,15,0.00,,,-99.99,,2013-01-20 13:33:00,
2013-01-20 05:42:00,59.0,11.0,29.98,ENE,65,2.0,6.0,15,0.00,,,-99.99,,2013-01-20 13:42:00,
2013-01-20 05:52:00,59.0,11.0,29.98,NE,36,2.0,6.0,15,0.00,,,-99.99,,2013-01-20 13:52:00,
2013-01-20 06:02:00,59.0,11.0,29.98,NE,36,2.0,6.0,15,0.00,,,-99.99,,2013-01-20 14:02:00,
2013-01-20 06:12:00,59.0,11.0,29.98,NE,36,2.0,6.0,15,0.00,,,-99.99,,2013-01-20 14:12:00,
2013-01-20 06:22:00,59.0,11.0,29.98,NE,40,3.0,7.0,15,0.00,,,-99.99,,2013-01-20 14:22:00,
2013-01-20 06:32:00,59.0,11.0,29.98,NE,40,3.0,7.0,15,0.00,,,-99.99,,2013-01-20 14:32:00,
2013-01-20 06:42:00,59.0,11.0,29.98,NE,40,3.0,7.0,15,0.00,,,-99.99,,2013-01-20 14:42:00,
2013-01-20 06:52:00,60.0,11.0,29.98,ENE,65,2.0,7.0,14,0.00,,,-99.99,,2013-01-20 14:52:00,
2013-01-20 07:03:00,60.0,11.0,29.98,ENE,65,2.0,7.0,14,0.00,,,-99.99,,2013-01-20 15:03:00,
2013-01-20 07:51:00,61.0,11.0,29.99,ENE,69,4.0,8.0,14,0.00,,,-99.99,,2013-01-20 15:51:00,
2013-01-20 07:53:00,60.0,9.0,29.98,NE,51,3.0,8.0,13,0.00,,,-99.99,,2013-01-20 15:53:00,
2013-01-20 08:22:00,61.0,11.0,29.99,ENE,69,4.0,8.0,14,0.00,,,-99.99,,2013-01-20 16:22:00,
2013-01-20 08:42:00,61.0,11.0,29.99,ENE,69,4.0,8.0,14,0.00,,,-99.99,,2013-01-20 16:42:00,
2013-01-20 09:22:00,66.0,14.0,30.00,East,82,4.0,12.0,13,0.00,,,-99.99,,2013-01-20 17:22:00,
2013-01-20 09:32:00,66.0,14.0,30.00,East,82,4.0,12.0,13,0.00,,,-99.99,,2013-01-20 17:32:00,
2013-01-20 09:42:00,66.0,14.0,30.00,East,82,4.0,12.0,13,0.00,,,-99.99,,2013-01-20 17:42:00,
2013-01-20 09:52:00,69.0,14.0,30.01,ENE,64,5.0,14.0,12,0.00,,,-99.99,,2013-01-20 17:52:00,
2013-01-20 10:02:00,69.0,14.0,30.01,ENE,64,5.0,14.0,12,0.00,,,-99.99,,2013-01-20 18:02:00,
2013-01-20 10:12:00,71.0,12.0,30.01,NE,39,7.0,14.0,10,0.00,,,-99.99,,2013-01-20 18:12:00,
2013-01-20 10:22:00,71.0,12.0,30.01,NE,39,7.0,14.0,10,0.00,,,-99.99,,2013-01-20 18:22:00,
2013-01-20 10:33:00,71.0,12.0,30.01,NE,39,7.0,14.0,10,0.00,,,-99.99,,2013-01-20 18:33:00,
2013-01-20 10:42:00,71.0,12.0,30.01,NE,39,7.0,14.0,10,0.00,,,-99.99,,2013-01-20 18:42:00,
2013-01-20 10:52:00,73.0,11.0,30.01,ENE,73,10.0,21.0,9,0.00,,,-99.99,,2013-01-20 18:52:00,
2013-01-20 11:12:00,73.0,11.0,30.01,ENE,73,10.0,21.0,9,0.00,,,-99.99,,2013-01-20 19:12:00,
2013-01-20 11:22:00,74.0,12.0,29.99,NE,35,11.0,21.0,9,0.00,,,-99.99,,2013-01-20 19:22:00,
2013-01-20 11:33:00,74.0,12.0,29.99,NE,35,11.0,21.0,9,0.00,,,-99.99,,2013-01-20 19:33:00,
2013-01-20 11:42:00,74.0,12.0,29.99,NE,35,11.0,21.0,9,0.00,,,-99.99,,2013-01-20 19:42:00,
2013-01-20 11:52:00,75.0,12.0,29.98,North,11,10.0,16.0,9,0.00,,,-99.99,,2013-01-20 19:52:00,
2013-01-20 12:02:00,75.0,12.0,29.98,North,11,10.0,16.0,9,0.00,,,-99.99,,2013-01-20 20:02:00,
2013-01-20 12:12:00,75.0,12.0,29.98,North,11,10.0,16.0,9,0.00,,,-99.99,,2013-01-20 20:12:00,
2013-01-20 12:22:00,76.0,10.0,29.94,NE,41,10.0,20.0,8,0.00,,,-99.99,,2013-01-20 20:22:00,
2013-01-20 12:53:00,76.0,10.0,29.94,NE,41,10.0,20.0,8,0.00,,,-99.99,,2013-01-20 20:53:00,
2013-01-20 13:12:00,76.0,10.0,29.94,NE,41,10.0,20.0,8,0.00,,,-99.99,,2013-01-20 21:12:00,
2013-01-20 13:52:00,77.0,11.0,29.90,NNE,22,9.0,21.0,8,0.00,,,-99.99,,2013-01-20 21:52:00,
2013-01-20 13:53:00,77.0,11.0,29.91,ENE,78,9.0,21.0,8,0.00,,,-99.99,,2013-01-20 21:53:00,
2013-01-20 14:03:00,77.0,11.0,29.91,ENE,78,9.0,21.0,8,0.00,,,-99.99,,2013-01-20 22:03:00,
2013-01-20 14:12:00,77.0,11.0,29.91,ENE,78,9.0,21.0,8,0.00,,,-99.99,,2013-01-20 22:12:00,
2013-01-20 14:22:00,77.0,11.0,29.90,NNE,22,9.0,21.0,8,0.00,,,-99.99,,2013-01-20 22:22:00,
2013-01-20 14:33:00,77.0,11.0,29.90,NNE,22,9.0,21.0,8,0.00,,,-99.99,,2013-01-20 22:33:00,
2013-01-20 14:42:00,77.0,11.0,29.90,NNE,22,9.0,21.0,8,0.00,,,-99.99,,2013-01-20 22:42:00,
2013-01-20 15:23:00,77.0,11.0,29.89,East,80,10.0,19.0,8,0.00,,,-99.99,,2013-01-20 23:23:00,
2013-01-20 15:33:00,77.0,11.0,29.89,East,80,10.0,19.0,8,0.00,,,-99.99,,2013-01-20 23:33:00,
2013-01-20 16:53:00,75.0,10.0,29.91,ENE,61,8.0,16.0,8,0.00,,,-99.99,,2013-01-21 00:53:00,
2013-01-20 17:52:00,70.0,9.0,29.93,NE,40,3.0,6.0,9,0.00,,,-99.99,,2013-01-21 01:52:00,
2013-01-20 17:53:00,72.0,10.0,29.92,ENE,59,4.0,10.0,9,0.00,,,-99.99,,2013-01-21 01:53:00,
2013-01-20 18:03:00,72.0,10.0,29.92,ENE,59,4.0,10.0,9,0.00,,,-99.99,,2013-01-21 02:03:00,
2013-01-20 18:22:00,70.0,9.0,29.93,NE,40,3.0,6.0,9,0.00,,,-99.99,,2013-01-21 02:22:00,
2013-01-20 18:42:00,70.0,9.0,29.93,NE,40,3.0,6.0,9,0.00,,,-99.99,,2013-01-21 02:42:00,
2013-01-20 19:23:00,66.0,10.0,29.95,NE,40,0.0,1.0,11,0.00,,,-99.99,,2013-01-21 03:23:00,
2013-01-20 19:52:00,65.0,13.0,29.95,NE,40,0.0,2.0,13,0.00,,,-99.99,,2013-01-21 03:52:00,
2013-01-20 20:12:00,65.0,13.0,29.95,NE,40,0.0,2.0,13,0.00,,,-99.99,,2013-01-21 04:12:00,
2013-01-20 20:22:00,63.0,11.0,29.95,NE,40,0.0,2.0,13,0.00,,,-99.99,,2013-01-21 04:22:00,
2013-01-20 20:52:00,64.0,10.0,29.96,NE,40,0.0,1.0,12,0.00,,,-99.99,,2013-01-21 04:52:00,
2013-01-20 21:22:00,64.0,10.0,29.96,NE,42,1.0,5.0,12,0.00,,,-99.99,,2013-01-21 05:22:00,
2013-01-20 21:33:00,64.0,10.0,29.96,NE,42,1.0,5.0,12,0.00,,,-99.99,,2013-01-21 05:33:00,
2013-01-20 21:52:00,63.0,11.0,29.96,NE,53,1.0,5.0,13,0.00,,,-99.99,,2013-01-21 05:52:00,
2013-01-20 22:22:00,64.0,10.0,29.97,NE,53,2.0,8.0,12,0.00,,,-99.99,,2013-01-21 06:22:00,
2013-01-20 22:52:00,61.0,11.0,29.97,ENE,65,1.0,5.0,14,0.00,,,-99.99,,2013-01-21 06:52:00,
2013-01-20 23:22:00,58.0,13.0,29.96,ENE,65,1.0,4.0,17,0.00,,,-99.99,,2013-01-21 07:22:00,
2013-01-20 23:33:00,58.0,13.0,29.96,ENE,65,1.0,4.0,17,0.00,,,-99.99,,2013-01-21 07:33:00,
2013-01-20 23:52:00,57.0,11.0,29.96,ENE,65,1.0,4.0,16,0.00,,,-99.99,,2013-01-21 07:52:00,